Airfield :
LOGIN :

Register | Disclaimer

   EN    FR    IT 

 










Legend :    VFR   Marginal VFR   IFR   Intensive IFR   Very Intensive IFR
Visi :
Ceiling :
>= 8 km
>= 3000ft
5 to 8 km
1000 to 3000 ft
1500m to 5 km
500 to 1000 ft
800 to 1500m
200 to 500 ft
< 800m
< 200 ft
Symbols :   Thunderstorms  Fog  Heavy snow  Heavy precipitations  Wind > 20 kt
SIGMETs :     Misc.  Thunderstorms  Icing  Turbulence  Mountain Waves  Volcanic Ashes







- Airport Elevation : 124 ft
- IATA code : AVN
- Download approach charts


LFMV - Avignon Caumont

CURRENT METAR :
  • 250630Z AUTO 01011KT CAVOK 22/12 Q1014 NOSIG

EXPIRED METARs :
  • 250600Z AUTO 36010KT CAVOK 21/12 Q1013 NOSIG
  • 250530Z AUTO 36009KT 340V040 CAVOK 20/11 Q1014 NOSIG
  • 250500Z AUTO 36009KT 320V040 CAVOK 20/11 Q1014 NOSIG
  • 250430Z AUTO 01009KT 320V040 CAVOK 19/11 Q1014 NOSIG
  • 250400Z AUTO 36011KT CAVOK 19/12 Q1013 NOSIG

TAF TAF LFMV
Valid from the 25 at 03:00 until the 26 at 03:00 UTC


250200Z 2503/2603 34015KT CAVOK
BECMG 2514/2516 21013KT
BECMG 2520/2522 VRB03KT
ATIS : +33 4 90 84 32 84
No reported NOTAMs for that airfield.



MET'MAP, your aeronautical weather chart ! - Copyright ORBIFLY December 2007 - Disclaimer

ORBIFLY MET'MAP TEAM :

Programming & Development : Alexandra Zaïnal
Concept & Development : Baudouin d'Aumeries
Co-Development & Prog : Marc-Olivier Méhu
Technical & hardware support : Manuel Goepfert

Contact : metmap@orbifly.com




SOURCES & CREDITS :

   NOAA